sensor_id;sensor_type;location;lat;lon;timestamp;pressure;altitude;pressure_sealevel;temperature;humidity
36304;BME280;22335;49.800;8.596;2023-04-01T00:03:35;98901.22;;;14.07;59.19
36304;BME280;22335;49.800;8.596;2023-04-01T00:10:20;98897.31;;;14.08;58.86
36304;BME280;22335;49.800;8.596;2023-04-01T00:17:03;98888.16;;;14.04;58.97
36304;BME280;22335;49.800;8.596;2023-04-01T00:23:46;98881.84;;;14.04;58.77
36304;BME280;22335;49.800;8.596;2023-04-01T00:30:31;98877.53;;;14.03;58.31
36304;BME280;22335;49.800;8.596;2023-04-01T00:37:15;98874.78;;;14.03;58.56
36304;BME280;22335;49.800;8.596;2023-04-01T00:44:17;98879.59;;;13.94;58.32
36304;BME280;22335;49.800;8.596;2023-04-01T00:51:06;98883.56;;;13.96;58.28
36304;BME280;22335;49.800;8.596;2023-04-01T00:57:53;98882.91;;;13.87;58.41
36304;BME280;22335;49.800;8.596;2023-04-01T01:04:38;98818.50;;;13.35;58.63
36304;BME280;22335;49.800;8.596;2023-04-01T01:11:28;98880.97;;;13.63;58.16
36304;BME280;22335;49.800;8.596;2023-04-01T01:18:19;98878.47;;;13.58;58.43
36304;BME280;22335;49.800;8.596;2023-04-01T01:25:16;98867.94;;;13.48;58.61
36304;BME280;22335;49.800;8.596;2023-04-01T01:32:18;98860.72;;;13.43;59.00
36304;BME280;22335;49.800;8.596;2023-04-01T01:39:26;98858.44;;;13.45;59.08
36304;BME280;22335;49.800;8.596;2023-04-01T01:46:14;98852.47;;;13.55;58.71
36304;BME280;22335;49.800;8.596;2023-04-01T01:53:22;98845.38;;;13.54;58.82
36304;BME280;22335;49.800;8.596;2023-04-01T02:00:09;98839.09;;;13.54;58.42
36304;BME280;22335;49.800;8.596;2023-04-01T02:07:00;98841.69;;;13.63;58.13
36304;BME280;22335;49.800;8.596;2023-04-01T02:13:50;98850.06;;;13.66;58.51
36304;BME280;22335;49.800;8.596;2023-04-01T02:20:39;98844.00;;;13.73;58.63
36304;BME280;22335;49.800;8.596;2023-04-01T02:27:24;98847.84;;;13.84;58.12
36304;BME280;22335;49.800;8.596;2023-04-01T02:34:08;98825.88;;;13.84;58.27
36304;BME280;22335;49.800;8.596;2023-04-01T02:40:59;98850.19;;;13.82;58.30
36304;BME280;22335;49.800;8.596;2023-04-01T03:02:46;98839.28;;;13.86;58.02
36304;BME280;22335;49.800;8.596;2023-04-01T03:09:29;98844.56;;;13.78;57.93
36304;BME280;22335;49.800;8.596;2023-04-01T03:16:13;98799.59;;;13.46;58.35
36304;BME280;22335;49.800;8.596;2023-04-01T03:22:58;98838.50;;;13.73;58.15
36304;BME280;22335;49.800;8.596;2023-04-01T03:29:42;98853.84;;;13.74;58.90
36304;BME280;22335;49.800;8.596;2023-04-01T03:36:26;98816.44;;;13.45;58.69
36304;BME280;22335;49.800;8.596;2023-04-01T03:43:11;98855.44;;;13.63;58.70
36304;BME280;22335;49.800;8.596;2023-04-01T03:49:55;98848.13;;;13.67;58.83
36304;BME280;22335;49.800;8.596;2023-04-01T03:56:39;98844.44;;;13.63;58.85
36304;BME280;22335;49.800;8.596;2023-04-01T04:03:24;98850.88;;;13.67;58.77
36304;BME280;22335;49.800;8.596;2023-04-01T04:10:08;98855.44;;;13.63;58.54
36304;BME280;22335;49.800;8.596;2023-04-01T04:16:52;98803.28;;;13.38;58.49
36304;BME280;22335;49.800;8.596;2023-04-01T04:23:37;98835.28;;;13.71;58.70
36304;BME280;22335;49.800;8.596;2023-04-01T04:30:21;98835.97;;;13.80;58.60
36304;BME280;22335;49.800;8.596;2023-04-01T04:37:05;98837.56;;;13.81;58.23
36304;BME280;22335;49.800;8.596;2023-04-01T04:43:53;98840.09;;;13.86;58.18
36304;BME280;22335;49.800;8.596;2023-04-01T04:50:40;98841.25;;;13.85;58.00
36304;BME280;22335;49.800;8.596;2023-04-01T04:57:24;98845.69;;;13.90;57.51
36304;BME280;22335;49.800;8.596;2023-04-01T05:04:10;98835.28;;;13.83;57.63
36304;BME280;22335;49.800;8.596;2023-04-01T05:10:55;98841.91;;;13.94;57.81
36304;BME280;22335;49.800;8.596;2023-04-01T05:17:39;98849.00;;;13.95;58.02
36304;BME280;22335;49.800;8.596;2023-04-01T05:24:25;98836.06;;;13.96;57.99
36304;BME280;22335;49.800;8.596;2023-04-01T05:31:09;98788.72;;;13.62;57.77
36304;BME280;22335;49.800;8.596;2023-04-01T05:37:54;98834.56;;;13.98;57.61
36304;BME280;22335;49.800;8.596;2023-04-01T05:44:39;98830.56;;;13.96;58.14
36304;BME280;22335;49.800;8.596;2023-04-01T05:51:23;98813.06;;;13.88;57.86
36304;BME280;22335;49.800;8.596;2023-04-01T05:58:07;98826.97;;;14.07;58.24
36304;BME280;22335;49.800;8.596;2023-04-01T06:05:01;98808.78;;;14.03;58.09
36304;BME280;22335;49.800;8.596;2023-04-01T06:19:22;98816.56;;;14.01;57.59
36304;BME280;22335;49.800;8.596;2023-04-01T06:26:25;98819.56;;;13.96;57.71
36304;BME280;22335;49.800;8.596;2023-04-01T06:33:30;98819.91;;;13.94;58.01
36304;BME280;22335;49.800;8.596;2023-04-01T06:48:05;98787.00;;;13.70;58.13
36304;BME280;22335;49.800;8.596;2023-04-01T06:55:24;98775.22;;;13.69;57.76
36304;BME280;22335;49.800;8.596;2023-04-01T07:02:29;98830.56;;;13.96;57.68
36304;BME280;22335;49.800;8.596;2023-04-01T07:09:22;98829.53;;;14.00;57.79
36304;BME280;22335;49.800;8.596;2023-04-01T07:16:30;98834.63;;;14.14;57.84
36304;BME280;22335;49.800;8.596;2023-04-01T07:23:21;98781.69;;;13.77;57.64
36304;BME280;22335;49.800;8.596;2023-04-01T07:30:52;98820.78;;;14.11;58.46
36304;BME280;22335;49.800;8.596;2023-04-01T07:37:50;98836.88;;;14.24;58.16
36304;BME280;22335;49.800;8.596;2023-04-01T07:44:45;98840.56;;;14.28;58.55
36304;BME280;22335;49.800;8.596;2023-04-01T07:51:41;98834.78;;;14.34;59.33
36304;BME280;22335;49.800;8.596;2023-04-01T07:58:34;98831.81;;;14.39;59.02
36304;BME280;22335;49.800;8.596;2023-04-01T08:05:33;98836.97;;;14.40;59.05
36304;BME280;22335;49.800;8.596;2023-04-01T08:12:32;98836.00;;;14.48;58.84
36304;BME280;22335;49.800;8.596;2023-04-01T08:19:51;98856.88;;;14.49;58.82
36304;BME280;22335;49.800;8.596;2023-04-01T08:26:46;98853.88;;;14.55;59.21
36304;BME280;22335;49.800;8.596;2023-04-01T08:33:36;98865.81;;;14.59;59.55
36304;BME280;22335;49.800;8.596;2023-04-01T08:40:40;98861.72;;;14.40;60.11
36304;BME280;22335;49.800;8.596;2023-04-01T08:55:38;98867.41;;;14.47;60.85
36304;BME280;22335;49.800;8.596;2023-04-01T09:02:51;98869.47;;;14.50;61.13
36304;BME280;22335;49.800;8.596;2023-04-01T09:10:37;98866.97;;;14.45;61.47
36304;BME280;22335;49.800;8.596;2023-04-01T09:18:12;98873.72;;;14.48;61.83
36304;BME280;22335;49.800;8.596;2023-04-01T09:25:30;98890.22;;;14.60;61.82
36304;BME280;22335;49.800;8.596;2023-04-01T09:32:46;98892.81;;;14.69;61.98
36304;BME280;22335;49.800;8.596;2023-04-01T09:39:51;98893.47;;;14.78;62.35
36304;BME280;22335;49.800;8.596;2023-04-01T09:47:09;98906.78;;;14.76;62.77
36304;BME280;22335;49.800;8.596;2023-04-01T09:54:17;98912.75;;;14.78;63.16
36304;BME280;22335;49.800;8.596;2023-04-01T10:01:25;98913.72;;;14.86;62.86
36304;BME280;22335;49.800;8.596;2023-04-01T10:08:40;98900.88;;;14.90;63.19
36304;BME280;22335;49.800;8.596;2023-04-01T10:16:03;98921.44;;;15.08;63.22
36304;BME280;22335;49.800;8.596;2023-04-01T10:23:24;98916.56;;;15.17;63.20
36304;BME280;22335;49.800;8.596;2023-04-01T10:30:44;98909.97;;;15.22;63.26
36304;BME280;22335;49.800;8.596;2023-04-01T10:38:14;98917.72;;;15.32;63.24
36304;BME280;22335;49.800;8.596;2023-04-01T10:45:29;98919.97;;;15.42;63.79
36304;BME280;22335;49.800;8.596;2023-04-01T10:53:16;98916.22;;;15.51;63.14
36304;BME280;22335;49.800;8.596;2023-04-01T11:23:53;98937.88;;;15.80;63.38
36304;BME280;22335;49.800;8.596;2023-04-01T11:30:59;98933.47;;;15.79;63.61
36304;BME280;22335;49.800;8.596;2023-04-01T11:38:04;98791.56;;;14.90;63.41
36304;BME280;22335;49.800;8.596;2023-04-01T11:45:15;98951.34;;;15.85;63.66
36304;BME280;22335;49.800;8.596;2023-04-01T11:52:10;98957.84;;;15.93;63.01
36304;BME280;22335;49.800;8.596;2023-04-01T12:06:40;98957.31;;;15.87;63.88
36304;BME280;22335;49.800;8.596;2023-04-01T12:13:37;98964.63;;;15.96;64.15
36304;BME280;22335;49.800;8.596;2023-04-01T12:20:30;98961.03;;;16.11;63.16
36304;BME280;22335;49.800;8.596;2023-04-01T12:34:43;98958.09;;;16.04;64.47
36304;BME280;22335;49.800;8.596;2023-04-01T12:41:45;98971.38;;;16.14;63.77
36304;BME280;22335;49.800;8.596;2023-04-01T12:48:59;98977.84;;;16.06;63.60
36304;BME280;22335;49.800;8.596;2023-04-01T12:56:02;98968.88;;;16.09;63.03
36304;BME280;22335;49.800;8.596;2023-04-01T13:03:02;98990.94;;;16.09;62.91
36304;BME280;22335;49.800;8.596;2023-04-01T13:10:03;98948.44;;;15.78;62.93
36304;BME280;22335;49.800;8.596;2023-04-01T13:16:54;99009.38;;;16.05;63.17
36304;BME280;22335;49.800;8.596;2023-04-01T13:23:54;98968.00;;;15.73;63.29
36304;BME280;22335;49.800;8.596;2023-04-01T13:30:48;99004.03;;;15.96;63.20
36304;BME280;22335;49.800;8.596;2023-04-01T13:37:46;99001.97;;;15.93;63.28
36304;BME280;22335;49.800;8.596;2023-04-01T13:44:42;99008.03;;;15.99;63.76
36304;BME280;22335;49.800;8.596;2023-04-01T13:51:37;99001.81;;;16.02;63.60
36304;BME280;22335;49.800;8.596;2023-04-01T13:58:43;99010.16;;;16.05;63.68
36304;BME280;22335;49.800;8.596;2023-04-01T14:05:56;99007.94;;;16.11;63.59
36304;BME280;22335;49.800;8.596;2023-04-01T14:12:54;99016.94;;;16.08;63.72
36304;BME280;22335;49.800;8.596;2023-04-01T14:19:57;99027.75;;;16.01;63.90
36304;BME280;22335;49.800;8.596;2023-04-01T14:27:31;99025.38;;;15.99;63.84
36304;BME280;22335;49.800;8.596;2023-04-01T14:34:34;99032.47;;;16.00;64.08
36304;BME280;22335;49.800;8.596;2023-04-01T14:41:36;99004.38;;;15.79;63.55
36304;BME280;22335;49.800;8.596;2023-04-01T14:48:31;99036.03;;;16.01;63.74
36304;BME280;22335;49.800;8.596;2023-04-01T14:55:23;99044.75;;;16.03;63.88
36304;BME280;22335;49.800;8.596;2023-04-01T15:02:25;99053.91;;;16.07;63.73
36304;BME280;22335;49.800;8.596;2023-04-01T15:09:28;99064.16;;;16.06;64.21
36304;BME280;22335;49.800;8.596;2023-04-01T15:16:25;98910.59;;;15.15;63.84
36304;BME280;22335;49.800;8.596;2023-04-01T15:23:22;99066.28;;;16.13;63.58
36304;BME280;22335;49.800;8.596;2023-04-01T15:30:23;99078.56;;;16.16;63.60
36304;BME280;22335;49.800;8.596;2023-04-01T15:37:18;99045.13;;;16.01;63.34
36304;BME280;22335;49.800;8.596;2023-04-01T15:44:26;99089.19;;;16.29;62.67
36304;BME280;22335;49.800;8.596;2023-04-01T15:51:56;99092.03;;;16.33;62.40
36304;BME280;22335;49.800;8.596;2023-04-01T15:58:56;99100.13;;;16.42;62.05
36304;BME280;22335;49.800;8.596;2023-04-01T16:05:55;99107.94;;;16.40;61.76
36304;BME280;22335;49.800;8.596;2023-04-01T16:13:17;99108.28;;;16.38;60.88
36304;BME280;22335;49.800;8.596;2023-04-01T16:20:18;99119.00;;;16.40;60.57
36304;BME280;22335;49.800;8.596;2023-04-01T16:27:06;99129.84;;;16.48;60.11
36304;BME280;22335;49.800;8.596;2023-04-01T16:33:59;99127.09;;;16.32;59.70
36304;BME280;22335;49.800;8.596;2023-04-01T16:40:58;99126.38;;;16.20;59.57
36304;BME280;22335;49.800;8.596;2023-04-01T16:47:50;99101.72;;;16.11;59.29
36304;BME280;22335;49.800;8.596;2023-04-01T16:54:41;99155.47;;;16.33;59.38
36304;BME280;22335;49.800;8.596;2023-04-01T17:01:30;99157.38;;;16.45;58.77
36304;BME280;22335;49.800;8.596;2023-04-01T17:08:41;99166.59;;;16.36;58.80
36304;BME280;22335;49.800;8.596;2023-04-01T17:15:36;99165.72;;;16.32;58.25
36304;BME280;22335;49.800;8.596;2023-04-01T17:22:31;99178.09;;;16.39;58.39
36304;BME280;22335;49.800;8.596;2023-04-01T17:29:22;99148.84;;;16.06;58.08
36304;BME280;22335;49.800;8.596;2023-04-01T17:36:21;99196.50;;;16.34;57.73
36304;BME280;22335;49.800;8.596;2023-04-01T17:43:22;99192.69;;;16.23;57.83
36304;BME280;22335;49.800;8.596;2023-04-01T17:50:22;99217.50;;;16.23;57.60
36304;BME280;22335;49.800;8.596;2023-04-01T17:57:26;99174.50;;;15.78;57.83
36304;BME280;22335;49.800;8.596;2023-04-01T18:04:34;99241.31;;;16.16;57.91
36304;BME280;22335;49.800;8.596;2023-04-01T18:11:34;99227.63;;;15.91;57.61
36304;BME280;22335;49.800;8.596;2023-04-01T18:18:39;99219.31;;;15.75;57.77
36304;BME280;22335;49.800;8.596;2023-04-01T18:25:33;99280.22;;;16.10;57.58
36304;BME280;22335;49.800;8.596;2023-04-01T18:32:26;99296.22;;;16.05;57.66
36304;BME280;22335;49.800;8.596;2023-04-01T18:39:17;99310.88;;;16.09;57.23
36304;BME280;22335;49.800;8.596;2023-04-01T18:46:12;99306.22;;;15.97;57.23
36304;BME280;22335;49.800;8.596;2023-04-01T18:53:12;99315.97;;;15.95;57.42
36304;BME280;22335;49.800;8.596;2023-04-01T19:00:05;99327.03;;;15.82;57.24
36304;BME280;22335;49.800;8.596;2023-04-01T19:06:52;99311.06;;;15.63;57.00
36304;BME280;22335;49.800;8.596;2023-04-01T19:13:45;99345.66;;;15.73;57.43
36304;BME280;22335;49.800;8.596;2023-04-01T19:20:38;99361.88;;;15.75;57.35
36304;BME280;22335;49.800;8.596;2023-04-01T19:27:29;99353.56;;;15.62;57.41
36304;BME280;22335;49.800;8.596;2023-04-01T19:34:25;99373.31;;;15.40;57.76
36304;BME280;22335;49.800;8.596;2023-04-01T19:41:31;99348.38;;;14.99;57.74
36304;BME280;22335;49.800;8.596;2023-04-01T19:48:38;99382.09;;;14.96;58.26
36304;BME280;22335;49.800;8.596;2023-04-01T19:55:33;99392.13;;;14.80;58.58
36304;BME280;22335;49.800;8.596;2023-04-01T20:02:49;99400.31;;;14.56;58.91
36304;BME280;22335;49.800;8.596;2023-04-01T20:09:50;99408.47;;;14.43;59.53
36304;BME280;22335;49.800;8.596;2023-04-01T20:16:49;99416.03;;;14.46;59.74
36304;BME280;22335;49.800;8.596;2023-04-01T20:23:43;99428.03;;;14.42;59.80
36304;BME280;22335;49.800;8.596;2023-04-01T20:30:47;99428.44;;;14.32;60.10
36304;BME280;22335;49.800;8.596;2023-04-01T20:37:55;99442.75;;;14.25;60.12
36304;BME280;22335;49.800;8.596;2023-04-01T20:44:48;99447.81;;;14.14;59.82
36304;BME280;22335;49.800;8.596;2023-04-01T20:51:46;99449.75;;;14.14;60.51
36304;BME280;22335;49.800;8.596;2023-04-01T20:58:41;99451.34;;;14.15;60.57
36304;BME280;22335;49.800;8.596;2023-04-01T21:12:48;99460.22;;;14.20;60.51
36304;BME280;22335;49.800;8.596;2023-04-01T21:19:54;99477.25;;;14.14;61.23
36304;BME280;22335;49.800;8.596;2023-04-01T21:26:52;99489.53;;;14.16;61.04
36304;BME280;22335;49.800;8.596;2023-04-01T21:33:58;99498.06;;;14.23;61.19
36304;BME280;22335;49.800;8.596;2023-04-01T21:41:07;99498.09;;;14.15;60.69
36304;BME280;22335;49.800;8.596;2023-04-01T21:48:33;99490.19;;;13.83;61.44
36304;BME280;22335;49.800;8.596;2023-04-01T22:03:12;99529.16;;;13.77;62.20
36304;BME280;22335;49.800;8.596;2023-04-01T22:10:18;99540.97;;;13.77;62.04
36304;BME280;22335;49.800;8.596;2023-04-01T22:17:11;99542.41;;;13.83;62.08
36304;BME280;22335;49.800;8.596;2023-04-01T22:24:06;99555.63;;;13.90;61.96
36304;BME280;22335;49.800;8.596;2023-04-01T22:30:59;99560.66;;;13.88;62.63
36304;BME280;22335;49.800;8.596;2023-04-01T22:37:48;99563.72;;;13.95;62.41
36304;BME280;22335;49.800;8.596;2023-04-01T22:44:49;99570.81;;;13.96;62.28
36304;BME280;22335;49.800;8.596;2023-04-01T22:51:40;99581.03;;;13.87;62.95
36304;BME280;22335;49.800;8.596;2023-04-01T22:58:30;99594.34;;;13.76;64.08
36304;BME280;22335;49.800;8.596;2023-04-01T23:05:20;99594.00;;;13.78;64.42
36304;BME280;22335;49.800;8.596;2023-04-01T23:12:05;99437.47;;;12.61;65.25
36304;BME280;22335;49.800;8.596;2023-04-01T23:18:56;99590.34;;;13.30;65.90
36304;BME280;22335;49.800;8.596;2023-04-01T23:25:49;99621.19;;;13.62;66.20
36304;BME280;22335;49.800;8.596;2023-04-01T23:32:36;99622.63;;;13.77;65.91
36304;BME280;22335;49.800;8.596;2023-04-01T23:39:23;99634.91;;;13.71;66.12
36304;BME280;22335;49.800;8.596;2023-04-01T23:46:12;99641.25;;;13.54;66.90
36304;BME280;22335;49.800;8.596;2023-04-01T23:52:59;99636.91;;;13.44;67.28
